createdAt,value
2022-09-24T00:01:43.970Z,96807.03
2022-09-24T00:04:13.489Z,96795.59
2022-09-24T00:06:43.359Z,96802.56
2022-09-24T00:09:11.987Z,96802.34
2022-09-24T00:11:40.597Z,96797.59
2022-09-24T00:14:09.149Z,96787.13
2022-09-24T00:16:37.427Z,96800.56
2022-09-24T00:19:06.972Z,96794.63
2022-09-24T00:21:36.671Z,96792.63
2022-09-24T00:24:07.379Z,96786.25
2022-09-24T00:26:49.907Z,96784.56
2022-09-24T00:29:19.397Z,96794.31
2022-09-24T00:31:47.774Z,96782.16
2022-09-24T00:34:17.673Z,96786.25
2022-09-24T00:36:46.230Z,96791.53
2022-09-24T00:39:14.674Z,96785.97
2022-09-24T00:41:47.242Z,96788.66
2022-09-24T00:44:50.945Z,96780.88
2022-09-24T00:47:29.955Z,96782.25
2022-09-24T00:50:06.425Z,96787.06
2022-09-24T00:52:35.118Z,96779.28
2022-09-24T00:55:03.213Z,96777.00
2022-09-24T00:57:31.747Z,96779.09
2022-09-24T01:00:00.249Z,96780.69
2022-09-24T01:02:28.394Z,96769.75
2022-09-24T01:04:56.932Z,96766.84
2022-09-24T01:07:26.532Z,96761.59
2022-09-24T01:09:54.682Z,96763.47
2022-09-24T01:12:28.419Z,96753.63
2022-09-24T01:15:05.974Z,96753.03
2022-09-24T01:17:38.277Z,96747.06
2022-09-24T01:20:29.803Z,96751.47
2022-09-24T01:23:15.401Z,96754.63
2022-09-24T01:25:50.060Z,96753.63
2022-09-24T01:28:35.356Z,96748.84
2022-09-24T01:31:08.897Z,96742.91
2022-09-24T01:33:37.716Z,96742.91
2022-09-24T01:36:08.570Z,96738.31
2022-09-24T01:38:39.857Z,96732.75
2022-09-24T01:41:08.841Z,96739.69
2022-09-24T01:43:38.491Z,96738.63
2022-09-24T01:46:08.406Z,96737.53
2022-09-24T01:48:37.550Z,96728.50
2022-09-24T01:51:10.253Z,96724.22
2022-09-24T01:53:42.629Z,96722.59
2022-09-24T01:56:15.975Z,96718.03
2022-09-24T01:58:48.671Z,96714.81
2022-09-24T02:01:20.488Z,96707.56
2022-09-24T02:03:52.718Z,96709.25
2022-09-24T02:06:26.180Z,96711.66
2022-09-24T02:08:57.616Z,96702.31
2022-09-24T02:11:25.851Z,96702.81
2022-09-24T02:13:56.983Z,96701.22
2022-09-24T02:16:29.281Z,96697.03
2022-09-24T02:18:59.321Z,96691.56
2022-09-24T02:21:28.541Z,96686.81
2022-09-24T02:24:06.673Z,96681.44
2022-09-24T02:26:34.898Z,96693.75
2022-09-24T02:29:03.133Z,96688.09
2022-09-24T02:31:34.622Z,96696.53
2022-09-24T02:34:23.667Z,96691.56
2022-09-24T02:36:54.259Z,96687.50
2022-09-24T02:39:22.637Z,96684.91
2022-09-24T02:41:51.326Z,96681.72
2022-09-24T02:44:19.797Z,96679.34
2022-09-24T02:46:50.424Z,96676.75
2022-09-24T02:49:18.883Z,96677.03
2022-09-24T02:51:46.950Z,96678.16
2022-09-24T02:54:15.006Z,96675.97
2022-09-24T02:56:43.183Z,96676.84
2022-09-24T02:59:12.282Z,96669.31
2022-09-24T03:01:40.590Z,96674.88
2022-09-24T03:04:10.452Z,96660.19
2022-09-24T03:06:38.925Z,96662.94
2022-09-24T03:09:07.141Z,96665.31
2022-09-24T03:11:35.735Z,96662.94
2022-09-24T03:14:03.712Z,96664.06
2022-09-24T03:16:31.812Z,96658.38
2022-09-24T03:18:59.874Z,96657.28
2022-09-24T03:21:29.263Z,96647.63
2022-09-24T03:23:57.218Z,96653.81
2022-09-24T03:26:25.292Z,96650.81
2022-09-24T03:28:53.720Z,96652.72
2022-09-24T03:31:23.320Z,96650.81
2022-09-24T03:33:51.839Z,96650.81
2022-09-24T03:36:21.614Z,96659.47
2022-09-24T03:38:52.619Z,96659.97
2022-09-24T03:41:20.558Z,96657.09
2022-09-24T03:43:48.508Z,96657.00
2022-09-24T03:46:17.238Z,96663.16
2022-09-24T03:48:47.236Z,96660.38
2022-09-24T03:51:20.181Z,96656.69
2022-09-24T03:53:49.019Z,96658.38
2022-09-24T03:56:18.345Z,96659.97
2022-09-24T03:58:47.614Z,96666.94
2022-09-24T04:01:21.691Z,96673.88
2022-09-24T04:03:50.415Z,96668.53
2022-09-24T04:06:23.413Z,96654.00
2022-09-24T04:08:54.045Z,96654.00
2022-09-24T04:11:23.998Z,96650.81
2022-09-24T04:13:52.440Z,96653.63
2022-09-24T04:16:20.489Z,96650.31
2022-09-24T04:18:48.812Z,96650.44
2022-09-24T04:21:16.805Z,96643.47
2022-09-24T04:23:44.890Z,96642.38
2022-09-24T04:26:12.957Z,96631.13
2022-09-24T04:28:42.393Z,96633.81
2022-09-24T04:31:10.475Z,96630.38
2022-09-24T04:33:38.457Z,96629.56
2022-09-24T04:36:06.557Z,96621.03
2022-09-24T04:38:34.703Z,96630.66
2022-09-24T04:41:06.925Z,96628.56
2022-09-24T04:43:36.846Z,96628.56
2022-09-24T04:46:06.877Z,96621.59
2022-09-24T04:48:38.379Z,96621.59
2022-09-24T04:51:06.928Z,96624.28
2022-09-24T04:53:36.721Z,96622.41
2022-09-24T04:56:05.098Z,96629.34
2022-09-24T04:58:33.321Z,96637.69
2022-09-24T05:01:03.957Z,96633.75
2022-09-24T05:03:33.329Z,96631.84
2022-09-24T05:06:01.950Z,96636.13
2022-09-24T05:08:30.010Z,96636.13
2022-09-24T05:10:58.000Z,96630.25
2022-09-24T05:13:26.213Z,96631.06
2022-09-24T05:15:54.293Z,96639.69
2022-09-24T05:18:22.498Z,96630.06
2022-09-24T05:20:52.382Z,96630.53
2022-09-24T05:23:20.470Z,96638.31
2022-09-24T05:26:06.027Z,96632.94
2022-09-24T05:28:35.289Z,96632.94
2022-09-24T05:31:03.486Z,96622.50
2022-09-24T05:33:31.637Z,96619.03
2022-09-24T05:36:00.958Z,96621.22
2022-09-24T05:38:29.960Z,96629.75
2022-09-24T05:40:58.114Z,96628.66
2022-09-24T05:43:27.749Z,96627.56
2022-09-24T05:45:58.586Z,96628.94
2022-09-24T05:48:26.949Z,96631.84
2022-09-24T05:50:55.692Z,96634.03
2022-09-24T05:53:25.621Z,96630.25
2022-09-24T05:55:53.577Z,96634.53
2022-09-24T05:58:21.611Z,96637.50
2022-09-24T06:00:49.940Z,96639.09
2022-09-24T06:03:19.739Z,96636.72
2022-09-24T06:05:49.635Z,96639.28
2022-09-24T06:08:18.119Z,96647.03
2022-09-24T06:10:48.619Z,96640.88
2022-09-24T06:13:18.469Z,96629.88
2022-09-24T06:15:47.137Z,96634.94
2022-09-24T06:18:15.284Z,96623.59
2022-09-24T06:20:43.540Z,96639.13
2022-09-24T06:23:11.951Z,96647.06
2022-09-24T06:25:39.891Z,96637.91
2022-09-24T06:28:09.340Z,96634.63
2022-09-24T06:30:39.405Z,96621.38
2022-09-24T06:33:09.791Z,96630.16
2022-09-24T06:35:38.335Z,96624.97
2022-09-24T06:38:07.275Z,96617.59
2022-09-24T06:40:37.458Z,96619.38
2022-09-24T06:43:06.684Z,96624.34
2022-09-24T06:45:36.305Z,96632.31
2022-09-24T06:48:05.894Z,96630.13
2022-09-24T06:50:35.559Z,96636.47
2022-09-24T06:53:06.427Z,96626.13
2022-09-24T06:55:34.928Z,96636.75
2022-09-24T06:58:04.573Z,96638.53
2022-09-24T07:00:32.675Z,96635.53
2022-09-24T07:03:02.195Z,96635.94
2022-09-24T07:05:30.905Z,96633.41
2022-09-24T07:07:58.961Z,96634.13
2022-09-24T07:10:28.015Z,96635.81
2022-09-24T07:12:56.137Z,96626.94
2022-09-24T07:15:24.082Z,96632.81
2022-09-24T07:17:56.088Z,96641.31
2022-09-24T07:20:28.078Z,96648.22
2022-09-24T07:22:56.281Z,96646.09
2022-09-24T07:25:24.171Z,96644.84
2022-09-24T07:27:52.067Z,96646.19
2022-09-24T07:30:20.082Z,96647.06
2022-09-24T07:32:50.583Z,96647.72
2022-09-24T07:35:21.030Z,96649.63
2022-09-24T07:37:50.402Z,96646.50
2022-09-24T07:40:18.462Z,96642.41
2022-09-24T07:42:49.432Z,96650.84
2022-09-24T07:45:18.197Z,96652.25
2022-09-24T07:47:46.152Z,96662.28
2022-09-24T07:50:14.062Z,96659.13
2022-09-24T07:52:41.951Z,96664.06
2022-09-24T07:55:11.294Z,96665.06
2022-09-24T07:57:39.809Z,96665.41
2022-09-24T08:00:09.168Z,96666.06
2022-09-24T08:02:40.031Z,96662.72
2022-09-24T08:05:08.618Z,96667.31
2022-09-24T08:07:36.590Z,96669.88
2022-09-24T08:10:05.056Z,96672.44
2022-09-24T08:12:34.590Z,96666.91
2022-09-24T08:15:02.570Z,96661.97
2022-09-24T08:17:30.451Z,96666.75
2022-09-24T08:19:58.758Z,96663.44
2022-09-24T08:22:26.681Z,96662.81
2022-09-24T08:24:54.936Z,96667.91
2022-09-24T08:27:24.112Z,96670.25
2022-09-24T08:29:53.573Z,96671.34
2022-09-24T08:32:21.488Z,96668.06
2022-09-24T08:34:49.398Z,96670.59
2022-09-24T08:37:17.237Z,96665.53
2022-09-24T08:39:45.302Z,96666.47
2022-09-24T08:42:20.347Z,96668.72
2022-09-24T08:45:07.923Z,96678.53
2022-09-24T08:47:38.975Z,96678.72
2022-09-24T08:50:15.372Z,96681.88
2022-09-24T08:53:00.985Z,96684.75
2022-09-24T08:55:33.884Z,96681.41
2022-09-24T08:58:09.859Z,96683.34
2022-09-24T09:00:43.713Z,96687.47
2022-09-24T09:03:18.636Z,96688.09
2022-09-24T09:05:53.955Z,96683.34
2022-09-24T09:11:23.207Z,96690.94
2022-09-24T09:13:54.215Z,96696.81
2022-09-24T09:16:24.933Z,96697.91
2022-09-24T09:18:57.498Z,96699.34
2022-09-24T09:21:29.822Z,96685.25
2022-09-24T09:23:59.037Z,96694.78
2022-09-24T09:26:27.294Z,96693.00
2022-09-24T09:29:00.095Z,96698.25
2022-09-24T09:31:36.821Z,96703.94
2022-09-24T09:34:29.830Z,96700.16
2022-09-24T09:37:07.529Z,96694.28
2022-09-24T09:39:40.431Z,96701.59
2022-09-24T09:42:26.496Z,96699.53
2022-09-24T09:44:54.685Z,96708.09
2022-09-24T09:47:26.452Z,96701.25
2022-09-24T09:49:59.146Z,96698.22
2022-09-24T09:52:29.842Z,96706.31
2022-09-24T09:54:57.898Z,96702.00
2022-09-24T09:57:26.432Z,96709.13
2022-09-24T09:59:55.100Z,96710.69
2022-09-24T10:02:25.759Z,96707.41
2022-09-24T10:04:57.660Z,96708.47
2022-09-24T10:07:25.788Z,96715.28
2022-09-24T10:10:05.374Z,96710.50
2022-09-24T10:12:33.280Z,96709.06
2022-09-24T10:15:02.858Z,96708.06
2022-09-24T10:17:35.684Z,96706.47
2022-09-24T10:20:09.674Z,96707.72
2022-09-24T10:22:39.346Z,96700.09
2022-09-24T10:25:07.890Z,96708.63
2022-09-24T10:27:37.765Z,96709.44
2022-09-24T10:30:31.478Z,96706.41
2022-09-24T10:33:00.312Z,96701.94
2022-09-24T10:35:31.354Z,96705.91
2022-09-24T10:38:01.241Z,96708.28
2022-09-24T10:40:31.244Z,96714.63
2022-09-24T10:43:01.373Z,96710.00
2022-09-24T10:45:43.686Z,96710.50
2022-09-24T10:48:18.857Z,96700.13
2022-09-24T10:50:54.405Z,96704.88
2022-09-24T10:53:31.850Z,96712.38
2022-09-24T10:56:05.389Z,96717.56
2022-09-24T10:59:00.762Z,96711.09
2022-09-24T11:01:33.488Z,96713.31
2022-09-24T11:04:20.959Z,96714.72
2022-09-24T11:07:09.200Z,96708.00
2022-09-24T11:09:43.849Z,96705.09
2022-09-24T11:12:16.565Z,96708.91
2022-09-24T11:14:56.544Z,96708.72
2022-09-24T11:17:33.442Z,96698.38
2022-09-24T11:20:17.632Z,96694.41
2022-09-24T11:22:57.940Z,96695.88
2022-09-24T11:25:32.891Z,96697.81
2022-09-24T11:28:14.897Z,96702.44
2022-09-24T11:30:48.811Z,96706.84
2022-09-24T11:33:27.264Z,96704.88
2022-09-24T11:36:06.548Z,96701.31
2022-09-24T11:38:49.667Z,96701.59
2022-09-24T11:41:27.922Z,96705.09
2022-09-24T11:44:18.683Z,96709.84
2022-09-24T11:46:56.638Z,96703.63
2022-09-24T11:49:39.059Z,96701.41
2022-09-24T11:52:10.431Z,96698.81
2022-09-24T11:54:45.262Z,96695.94
2022-09-24T11:57:17.156Z,96700.22
2022-09-24T11:59:51.033Z,96694.28
2022-09-24T12:02:23.825Z,96692.53
2022-09-24T12:04:58.690Z,96689.41
2022-09-24T12:07:31.539Z,96685.72
2022-09-24T12:10:04.336Z,96685.00
2022-09-24T12:12:34.598Z,96676.53
2022-09-24T12:15:05.704Z,96682.78
2022-09-24T12:17:37.494Z,96677.97
2022-09-24T12:20:09.826Z,96668.19
2022-09-24T12:22:39.396Z,96666.88
2022-09-24T12:25:13.224Z,96670.50
2022-09-24T12:27:41.253Z,96670.28
2022-09-24T12:30:43.620Z,96672.50
2022-09-24T12:33:16.088Z,96674.09
2022-09-24T12:35:55.935Z,96678.44
2022-09-24T12:38:26.767Z,96680.56
2022-09-24T12:41:12.717Z,96668.69
2022-09-24T12:43:43.764Z,96665.88
2022-09-24T12:46:17.953Z,96672.88
2022-09-24T12:48:46.974Z,96673.56
2022-09-24T12:51:15.543Z,96675.25
2022-09-24T12:53:45.059Z,96679.88
2022-09-24T12:56:24.961Z,96672.22
2022-09-24T12:58:53.324Z,96671.44
2022-09-24T13:01:30.404Z,96668.84
2022-09-24T13:04:06.324Z,96657.41
2022-09-24T13:06:36.582Z,96663.53
2022-09-24T13:09:25.647Z,96667.56
2022-09-24T13:12:04.690Z,96661.38
2022-09-24T13:14:33.842Z,96657.69
2022-09-24T13:17:06.714Z,96659.25
2022-09-24T13:19:40.973Z,96660.59
2022-09-24T13:22:21.875Z,96645.44
2022-09-24T13:24:51.751Z,96650.16
2022-09-24T13:27:24.958Z,96641.06
2022-09-24T13:30:06.970Z,96641.41
2022-09-24T13:32:38.492Z,96644.69
2022-09-24T13:35:12.333Z,96653.13
2022-09-24T13:37:42.782Z,96649.06
2022-09-24T13:40:19.495Z,96647.28
2022-09-24T13:42:51.175Z,96640.94
2022-09-24T13:45:21.548Z,96644.69
2022-09-24T13:47:52.650Z,96645.91
2022-09-24T13:50:23.718Z,96646.06
2022-09-24T13:52:54.973Z,96650.69
2022-09-24T13:55:24.357Z,96649.66
2022-09-24T13:57:53.768Z,96656.34
2022-09-24T14:00:24.458Z,96658.38
2022-09-24T14:02:58.970Z,96653.41
2022-09-24T14:05:27.579Z,96641.47
2022-09-24T14:08:04.824Z,96639.41
2022-09-24T14:10:33.037Z,96649.44
2022-09-24T14:13:17.430Z,96648.00
2022-09-24T14:15:56.223Z,96644.97
2022-09-24T14:18:25.039Z,96643.50
2022-09-24T14:20:57.832Z,96641.78
2022-09-24T14:23:28.377Z,96640.47
2022-09-24T14:25:56.984Z,96643.19
2022-09-24T14:28:26.501Z,96635.19
2022-09-24T14:30:56.295Z,96643.75
2022-09-24T14:33:27.132Z,96645.25
2022-09-24T14:35:56.383Z,96639.81
2022-09-24T14:38:26.421Z,96646.00
2022-09-24T14:40:56.979Z,96638.34
2022-09-24T14:43:31.428Z,96636.75
2022-09-24T14:46:04.421Z,96646.81
2022-09-24T14:48:33.721Z,96637.22
2022-09-24T14:51:02.089Z,96638.75
2022-09-24T14:53:34.220Z,96634.44
2022-09-24T14:56:03.504Z,96635.13
2022-09-24T14:58:37.300Z,96629.94
2022-09-24T15:01:08.194Z,96639.56
2022-09-24T15:03:40.893Z,96637.44
2022-09-24T15:06:19.357Z,96632.94
2022-09-24T15:08:54.085Z,96641.91
2022-09-24T15:11:27.708Z,96633.25
2022-09-24T15:14:01.683Z,96636.75
2022-09-24T15:16:32.027Z,96634.41
2022-09-24T15:19:11.134Z,96630.44
2022-09-24T15:21:39.040Z,96632.59
2022-09-24T15:24:07.172Z,96637.00
2022-09-24T15:26:37.322Z,96629.66
2022-09-24T15:29:07.470Z,96634.41
2022-09-24T15:31:35.473Z,96630.25
2022-09-24T15:34:03.485Z,96634.88
2022-09-24T15:36:31.415Z,96630.94
2022-09-24T15:39:02.139Z,96635.47
2022-09-24T15:41:30.031Z,96629.66
2022-09-24T15:43:59.003Z,96631.34
2022-09-24T15:46:28.336Z,96623.69
2022-09-24T15:48:56.246Z,96626.84
2022-09-24T15:51:24.600Z,96629.91
2022-09-24T15:53:52.571Z,96631.81
2022-09-24T15:56:20.473Z,96625.28
2022-09-24T15:58:48.379Z,96623.69
2022-09-24T16:01:19.218Z,96625.28
2022-09-24T16:03:48.637Z,96623.69
2022-09-24T16:06:16.604Z,96627.50
2022-09-24T16:08:44.523Z,96617.81
2022-09-24T16:11:12.453Z,96622.78
2022-09-24T16:13:40.451Z,96619.63
2022-09-24T16:16:08.974Z,96610.19
2022-09-24T16:18:39.766Z,96614.59
2022-09-24T16:21:09.551Z,96609.19
2022-09-24T16:23:37.480Z,96612.56
2022-09-24T16:26:05.708Z,96613.69
2022-09-24T16:28:33.640Z,96620.56
2022-09-24T16:31:06.342Z,96619.31
2022-09-24T16:33:38.852Z,96613.44
2022-09-24T16:36:07.294Z,96611.88
2022-09-24T16:38:37.412Z,96613.31
2022-09-24T16:41:06.126Z,96620.66
2022-09-24T16:43:34.231Z,96618.63
2022-09-24T16:46:03.656Z,96626.97
2022-09-24T16:48:31.933Z,96619.16
2022-09-24T16:51:04.256Z,96615.66
2022-09-24T16:53:34.143Z,96620.63
2022-09-24T16:56:08.396Z,96628.28
2022-09-24T16:58:36.613Z,96621.28
2022-09-24T17:01:06.071Z,96617.66
2022-09-24T17:03:34.223Z,96621.50
2022-09-24T17:06:02.473Z,96630.28
2022-09-24T17:08:45.947Z,96627.47
2022-09-24T17:11:16.300Z,96631.13
2022-09-24T17:13:44.500Z,96623.69
2022-09-24T17:16:12.522Z,96627.53
2022-09-24T17:18:40.618Z,96628.19
2022-09-24T17:21:11.163Z,96625.34
2022-09-24T17:23:39.889Z,96635.72
2022-09-24T17:26:11.504Z,96630.16
2022-09-24T17:28:42.125Z,96628.59
2022-09-24T17:31:11.159Z,96640.72
2022-09-24T17:33:43.267Z,96639.94
2022-09-24T17:36:14.247Z,96637.31
2022-09-24T17:38:43.000Z,96629.66
2022-09-24T17:41:13.131Z,96640.47
2022-09-24T17:43:43.072Z,96642.03
2022-09-24T17:46:14.418Z,96642.72
2022-09-24T17:48:44.508Z,96641.91
2022-09-24T17:51:15.032Z,96645.75
2022-09-24T17:53:43.238Z,96641.81
2022-09-24T17:56:12.632Z,96639.41
2022-09-24T17:58:43.775Z,96644.81
2022-09-24T18:01:13.580Z,96642.44
2022-09-24T18:03:42.044Z,96639.75
2022-09-24T18:06:13.681Z,96646.25
2022-09-24T18:08:42.988Z,96647.38
2022-09-24T18:11:12.664Z,96647.72
2022-09-24T18:13:42.315Z,96650.75
2022-09-24T18:16:12.662Z,96649.16
2022-09-24T18:18:41.021Z,96646.47
2022-09-24T18:21:11.093Z,96647.56
2022-09-24T18:23:39.463Z,96646.78
2022-09-24T18:26:10.537Z,96650.63
2022-09-24T18:28:39.741Z,96646.00
2022-09-24T18:31:10.391Z,96656.81
2022-09-24T18:33:40.137Z,96652.06
2022-09-24T18:36:10.932Z,96661.28
2022-09-24T18:38:39.220Z,96665.09
2022-09-24T18:41:09.449Z,96658.91
2022-09-24T18:43:37.541Z,96661.97
2022-09-24T18:46:31.750Z,96657.66
2022-09-24T18:49:00.645Z,96664.97
2022-09-24T18:51:29.738Z,96669.59
2022-09-24T18:53:59.064Z,96670.19
2022-09-24T18:56:27.911Z,96672.13
2022-09-24T18:58:56.990Z,96674.06
2022-09-24T19:01:25.378Z,96683.28
2022-09-24T19:03:55.074Z,96677.88
2022-09-24T19:06:23.167Z,96680.56
2022-09-24T19:08:51.109Z,96679.78
2022-09-24T19:11:19.104Z,96679.16
2022-09-24T19:13:49.920Z,96685.03
2022-09-24T19:16:19.085Z,96685.03
2022-09-24T19:18:47.226Z,96687.72
2022-09-24T19:21:16.507Z,96686.16
2022-09-24T19:23:46.328Z,96686.16
2022-09-24T19:26:16.140Z,96690.78
2022-09-24T19:28:45.386Z,96685.38
2022-09-24T19:31:14.719Z,96679.50
2022-09-24T19:33:42.759Z,96686.50
2022-09-24T19:36:11.814Z,96683.69
2022-09-24T19:38:42.286Z,96677.81
2022-09-24T19:41:13.419Z,96684.47
2022-09-24T19:43:43.650Z,96675.56
2022-09-24T19:46:14.578Z,96676.38
2022-09-24T19:48:44.203Z,96683.38
2022-09-24T19:51:15.115Z,96682.41
2022-09-24T19:53:44.688Z,96680.84
2022-09-24T19:56:13.013Z,96673.84
2022-09-24T19:58:41.271Z,96677.69
2022-09-24T20:01:13.684Z,96673.84
2022-09-24T20:03:44.865Z,96684.66
2022-09-24T20:06:18.110Z,96683.88
2022-09-24T20:08:48.675Z,96672.28
2022-09-24T20:11:20.645Z,96678.31
2022-09-24T20:13:48.982Z,96668.97
2022-09-24T20:16:19.688Z,96673.56
2022-09-24T20:18:48.164Z,96665.16
2022-09-24T20:21:18.342Z,96671.34
2022-09-24T20:23:48.327Z,96671.34
2022-09-24T20:26:34.938Z,96670.56
2022-09-24T20:29:03.602Z,96664.34
2022-09-24T20:31:31.663Z,96663.41
2022-09-24T20:34:00.880Z,96663.41
2022-09-24T20:36:29.060Z,96661.84
2022-09-24T20:38:58.840Z,96660.25
2022-09-24T20:41:27.231Z,96664.06
2022-09-24T20:43:56.390Z,96665.97
2022-09-24T20:46:25.501Z,96659.28
2022-09-24T20:48:53.943Z,96657.56
2022-09-24T20:51:22.765Z,96662.06
2022-09-24T20:53:51.101Z,96662.38
2022-09-24T20:56:21.158Z,96663.97
2022-09-24T20:58:50.299Z,96668.25
2022-09-24T21:01:18.683Z,96660.16
2022-09-24T21:03:49.874Z,96657.13
2022-09-24T21:06:20.735Z,96652.03
2022-09-24T21:08:48.725Z,96657.44
2022-09-24T21:11:19.038Z,96652.03
2022-09-24T21:13:50.210Z,96656.66
2022-09-24T21:16:19.836Z,96649.66
2022-09-24T21:18:48.555Z,96656.16
2022-09-24T21:21:17.871Z,96658.06
2022-09-24T21:23:47.008Z,96649.97
2022-09-24T21:26:16.707Z,96654.28
2022-09-24T21:28:45.311Z,96654.28
2022-09-24T21:31:15.330Z,96652.69
2022-09-24T21:33:46.287Z,96653.78
2022-09-24T21:36:18.611Z,96657.28
2022-09-24T21:38:47.074Z,96646.34
2022-09-24T21:41:15.013Z,96645.56
2022-09-24T21:43:42.944Z,96648.56
2022-09-24T21:46:11.139Z,96647.78
2022-09-24T21:48:40.518Z,96650.81
2022-09-24T21:51:09.886Z,96657.34
2022-09-24T21:53:38.831Z,96651.31
2022-09-24T21:56:07.396Z,96654.16
2022-09-24T21:58:35.354Z,96655.25
2022-09-24T22:01:05.285Z,96651.00
2022-09-24T22:03:33.499Z,96652.56
2022-09-24T22:06:04.926Z,96651.47
2022-09-24T22:08:33.018Z,96653.03
2022-09-24T22:11:02.512Z,96655.75
2022-09-24T22:13:31.014Z,96653.03
2022-09-24T22:15:59.857Z,96658.16
2022-09-24T22:18:28.739Z,96652.13
2022-09-24T22:20:57.482Z,96660.53
2022-09-24T22:23:26.881Z,96655.94
2022-09-24T22:25:56.273Z,96654.81
2022-09-24T22:28:25.257Z,96653.72
2022-09-24T22:30:53.949Z,96645.94
2022-09-24T22:33:40.027Z,96646.72
2022-09-24T22:36:08.341Z,96641.31
2022-09-24T22:38:37.876Z,96644.81
2022-09-24T22:41:10.780Z,96642.13
2022-09-24T22:43:39.168Z,96641.31
2022-09-24T22:46:09.195Z,96635.91
2022-09-24T22:48:37.282Z,96641.94
2022-09-24T22:51:06.463Z,96644.19
2022-09-24T22:53:35.121Z,96646.25
2022-09-24T22:56:05.587Z,96645.13
2022-09-24T22:58:33.977Z,96646.72
2022-09-24T23:01:08.633Z,96644.34
2022-09-24T23:03:36.903Z,96643.69
2022-09-24T23:06:06.133Z,96635.56
2022-09-24T23:08:34.677Z,96633.66
2022-09-24T23:11:08.944Z,96632.09
2022-09-24T23:13:38.112Z,96637.50
2022-09-24T23:16:11.668Z,96634.00
2022-09-24T23:18:39.946Z,96636.72
2022-09-24T23:21:09.068Z,96635.91
2022-09-24T23:23:37.215Z,96613.97
2022-09-24T23:26:07.123Z,96622.56
2022-09-24T23:28:37.158Z,96624.47
2022-09-24T23:31:05.571Z,96616.34
2022-09-24T23:33:34.396Z,96617.94
2022-09-24T23:36:03.150Z,96619.53
2022-09-24T23:38:31.285Z,96632.25
2022-09-24T23:41:00.728Z,96633.03
2022-09-24T23:43:29.245Z,96621.44
2022-09-24T23:45:58.699Z,96628.44
2022-09-24T23:48:27.148Z,96629.22
2022-09-24T23:50:55.533Z,96627.63
2022-09-24T23:53:23.541Z,96635.41
2022-09-24T23:55:53.919Z,96636.19
2022-09-24T23:58:25.195Z,96636.19
